Time;durP1;ratioP1;P1;durP2;ratioP2;P2;SDS_P1;SDS_P2;PMS_P1;PMS_P2;Temp;Humidity;BMP_temperature;BMP_pressure;BME280_temperature;BME280_humidity;BME280_pressure;Samples;Min_cycle;Max_cycle;Signal;HPM_P1;HPM_P2
2022/01/22 00:00:40;;;;;;;5.17;2.22;;;;;;;0.24;60.98;99383.22;1804353;77;21580;-58
2022/01/22 00:03:06;;;;;;;6.10;2.55;;;;;;;0.18;61.15;99391.69;1792312;79;21273;-60
2022/01/22 00:05:33;;;;;;;5.97;2.40;;;;;;;0.11;61.73;99392.08;1788426;78;21038;-59
2022/01/22 00:08:00;;;;;;;6.90;2.85;;;;;;;0.07;63.51;99397.02;1796541;78;21045;-59
2022/01/22 00:10:27;;;;;;;6.55;2.65;;;;;;;0.01;63.37;99396.89;1782160;79;21137;-58
2022/01/22 00:15:29;;;;;;;6.00;2.58;;;;;;;-0.06;63.69;99402.84;1776327;78;21813;-60
2022/01/22 00:17:55;;;;;;;6.28;2.25;;;;;;;-0.08;64.73;99393.51;1772784;80;21070;-61
2022/01/22 00:20:25;;;;;;;7.62;2.55;;;;;;;-0.19;66.49;99395.33;1801171;78;21070;-61
2022/01/22 00:22:52;;;;;;;7.58;2.30;;;;;;;-0.22;69.09;99412.30;1779000;79;21553;-60
2022/01/22 00:25:20;;;;;;;6.62;2.60;;;;;;;-0.24;68.07;99394.27;1785836;78;21105;-60
2022/01/22 00:27:48;;;;;;;7.28;2.45;;;;;;;-0.24;68.07;99394.27;1792154;78;21103;-60
2022/01/22 00:30:17;;;;;;;6.87;2.40;;;;;;;-0.23;68.30;99400.30;1807530;78;21073;-61
2022/01/22 00:32:44;;;;;;;5.87;2.52;;;;;;;-0.24;68.07;99411.08;1782575;79;21510;-60
2022/01/22 00:35:11;;;;;;;16.37;2.90;;;;;;;-0.22;68.68;99406.69;1768229;79;20999;-60
2022/01/22 00:37:42;;;;;;;4.97;2.45;;;;;;;-0.23;68.52;99390.78;1775520;78;21054;-60
2022/01/22 00:40:10;;;;;;;6.55;2.58;;;;;;;-0.24;68.40;99396.03;1776089;78;21103;-60
2022/01/22 00:42:38;;;;;;;6.25;2.40;;;;;;;-0.26;68.74;99388.81;1774774;78;21078;-60
2022/01/22 00:45:09;;;;;;;5.78;2.33;;;;;;;-0.26;69.94;99390.94;1784799;78;21356;-59
2022/01/22 00:47:37;;;;;;;6.90;3.10;;;;;;;-0.26;69.94;99390.94;1773997;78;21113;-61
2022/01/22 00:50:05;;;;;;;6.30;2.42;;;;;;;-0.29;69.64;99400.60;1777741;78;21092;-59
2022/01/22 00:52:32;;;;;;;5.12;2.00;;;;;;;-0.32;69.21;99399.45;1778902;78;21070;-59
2022/01/22 00:54:58;;;;;;;8.45;3.17;;;;;;;-0.34;68.70;99398.70;1772406;79;21073;-59
2022/01/22 00:57:25;;;;;;;7.65;2.72;;;;;;;-0.39;69.16;99387.30;1774466;78;21061;-60
2022/01/22 00:59:51;;;;;;;7.10;3.08;;;;;;;-0.39;69.57;99398.94;1772085;78;21391;-58
2022/01/22 01:02:21;;;;;;;5.70;2.50;;;;;;;-0.43;69.82;99383.22;1794335;79;22927;-60
2022/01/22 01:04:51;;;;;;;6.25;2.37;;;;;;;-0.43;69.85;99388.39;1774526;80;21117;-60
2022/01/22 01:07:17;;;;;;;5.03;2.30;;;;;;;-0.44;70.37;99384.12;1786307;79;21046;-60
2022/01/22 01:09:44;;;;;;;6.00;2.15;;;;;;;-0.46;69.95;99393.70;1776495;79;21003;-60
2022/01/22 01:12:12;;;;;;;7.20;2.40;;;;;;;-0.46;70.10;99393.70;1787552;78;21077;-60
2022/01/22 01:14:55;;;;;;;7.08;2.70;;;;;;;-0.45;69.96;99392.80;1769587;78;21066;-59
2022/01/22 01:33:51;;;;;;;6.43;2.27;;;;;;;-0.41;69.28;99391.72;1809564;77;20979;-59
2022/01/22 01:36:14;;;;;;;8.15;1.70;;;;;;;-0.39;69.07;99388.59;1781587;78;21111;-60
2022/01/22 01:38:45;;;;;;;7.47;2.50;;;;;;;-0.38;68.63;99386.41;1803751;78;21047;-60
2022/01/22 01:41:19;;;;;;;5.42;1.95;;;;;;;-0.39;68.35;99390.75;1796988;78;21058;-60
2022/01/22 01:43:38;;;;;;;5.28;2.33;;;;;;;-0.36;68.01;99392.79;1777803;78;21501;-59
2022/01/22 01:46:26;;;;;;;4.03;1.50;;;;;;;-0.39;67.65;99395.91;1805251;77;21038;-60
2022/01/22 01:48:52;;;;;;;5.40;2.42;;;;;;;-0.35;67.51;99399.61;1788241;78;21522;-60
2022/01/22 01:51:21;;;;;;;7.03;2.80;;;;;;;-0.36;67.51;99399.25;1803879;78;21085;-58
2022/01/22 01:53:59;;;;;;;5.00;1.90;;;;;;;-0.35;67.41;99398.31;1788457;78;21025;-58
2022/01/22 01:59:04;;;;;;;5.15;1.87;;;;;;;-0.30;66.92;99406.67;1787063;78;21033;-59
2022/01/22 02:01:31;;;;;;;7.15;2.12;;;;;;;-0.33;66.98;99406.86;1786038;78;21061;-60
2022/01/22 02:03:57;;;;;;;10.63;2.72;;;;;;;-0.32;67.11;99404.63;1785001;78;21045;-59
2022/01/22 02:06:25;;;;;;;4.30;1.70;;;;;;;-0.36;66.82;99405.25;1782817;78;21038;-60
2022/01/22 02:08:53;;;;;;;6.28;2.25;;;;;;;-0.33;66.69;99420.61;1788909;78;21759;-60
2022/01/22 02:11:24;;;;;;;4.90;1.47;;;;;;;-0.34;66.47;99416.34;1787070;78;21584;-60
2022/01/22 02:14:06;;;;;;;5.95;1.92;;;;;;;-0.37;66.14;99402.27;1788083;79;21541;-61
2022/01/22 02:24:57;;;;;;;4.65;1.37;;;;;;;-0.52;66.57;99406.92;1758215;79;21039;-61
2022/01/22 02:27:24;;;;;;;5.20;2.08;;;;;;;-0.54;66.70;99413.92;1774921;80;21048;-59
2022/01/22 02:29:50;;;;;;;5.55;1.90;;;;;;;-0.59;66.70;99417.58;1761864;79;21089;-60
2022/01/22 02:35:25;;;;;;;6.35;2.35;;;;;;;-0.65;66.89;99420.46;1759209;80;21132;-58
2022/01/22 02:37:53;;;;;;;6.28;1.90;;;;;;;-0.66;67.05;99428.28;1761461;80;21052;-58
2022/01/22 02:40:22;;;;;;;4.62;1.75;;;;;;;-0.69;67.22;99433.59;1753964;80;21035;-60
2022/01/22 02:42:45;;;;;;;5.53;1.92;;;;;;;-0.67;66.99;99439.52;1740349;80;21391;-59
2022/01/22 02:45:18;;;;;;;4.25;1.62;;;;;;;-0.64;66.90;99436.79;1765471;80;21054;-59
2022/01/22 02:47:41;;;;;;;5.97;2.17;;;;;;;-0.62;66.69;99444.03;1765071;80;21140;-60
2022/01/22 02:50:09;;;;;;;7.05;1.70;;;;;;;-0.67;67.07;99439.52;1760653;79;21125;-59
2022/01/22 02:52:38;;;;;;;4.15;1.52;;;;;;;-0.70;68.05;99434.06;1769052;80;21066;-59
2022/01/22 02:55:07;;;;;;;4.80;1.72;;;;;;;-0.67;67.73;99446.83;1766365;79;21517;-60
2022/01/22 02:57:35;;;;;;;4.90;1.70;;;;;;;-0.65;67.37;99453.22;1757082;80;21089;-60
2022/01/22 03:00:08;;;;;;;4.30;1.40;;;;;;;-0.65;67.29;99450.17;1765474;79;21007;-62
2022/01/22 03:02:35;;;;;;;9.73;2.35;;;;;;;-0.65;67.29;99450.17;1769145;80;21093;-60
2022/01/22 03:05:03;;;;;;;5.78;1.85;;;;;;;-0.67;67.21;99442.95;1763950;79;21011;-60
2022/01/22 03:07:31;;;;;;;4.62;1.45;;;;;;;-0.64;67.15;99447.13;1767307;80;21394;-60
2022/01/22 03:10:02;;;;;;;7.15;2.37;;;;;;;-0.62;67.00;99444.03;1764749;80;21096;-60
2022/01/22 03:27:53;;;;;;;5.60;2.15;;;;;;;-0.49;66.34;99439.91;1776221;79;21000;-59
2022/01/22 03:30:19;;;;;;;6.00;1.67;;;;;;;-0.48;66.27;99439.00;1786435;79;21061;-59
2022/01/22 03:32:52;;;;;;;4.20;1.65;;;;;;;-0.46;66.15;99449.27;1781590;79;21123;-59
2022/01/22 03:37:52;;;;;;;4.55;1.75;;;;;;;-0.46;65.69;99445.39;1769742;80;21177;-60
2022/01/22 03:40:21;;;;;;;7.33;1.82;;;;;;;-0.41;65.86;99453.75;1770820;80;21069;-58
2022/01/22 03:42:49;;;;;;;4.00;1.30;;;;;;;-0.41;65.83;99450.70;1767381;78;21113;-62
2022/01/22 03:45:18;;;;;;;4.53;1.37;;;;;;;-0.40;65.72;99458.85;1770462;80;21118;-60
2022/01/22 03:47:47;;;;;;;4.62;1.70;;;;;;;-0.43;65.71;99461.58;1773182;80;21413;-59
2022/01/22 03:50:15;;;;;;;5.92;1.67;;;;;;;-0.40;65.50;99456.73;1772884;80;21869;-60
2022/01/22 03:52:41;;;;;;;4.33;1.70;;;;;;;-0.38;65.56;99466.53;1781328;80;21533;-60
2022/01/22 03:55:12;;;;;;;5.53;1.77;;;;;;;-0.39;65.54;99463.55;1783778;80;21497;-59
2022/01/22 03:57:42;;;;;;;4.45;1.75;;;;;;;-0.38;65.60;99464.77;1764137;80;21116;-59
2022/01/22 04:00:11;;;;;;;5.35;2.12;;;;;;;-0.34;65.44;99464.16;1766937;80;21142;-59
2022/01/22 04:03:20;;;;;;;4.70;2.00;;;;;;;-0.31;65.40;99460.60;1774101;80;21101;-60
2022/01/22 04:05:17;;;;;;;5.42;1.98;;;;;;;-0.25;65.27;99462.42;1767403;80;21035;-61
2022/01/22 04:08:10;;;;;;;6.12;1.55;;;;;;;-0.20;65.13;99466.91;1773751;78;20995;-61
2022/01/22 04:10:30;;;;;;;5.75;1.92;;;;;;;-0.17;64.97;99471.53;1777815;80;21050;-60
2022/01/22 04:13:05;;;;;;;6.00;2.17;;;;;;;-0.19;64.80;99471.14;1764977;80;21573;-55
2022/01/22 04:15:32;;;;;;;4.67;1.80;;;;;;;-0.16;64.58;99473.22;1782795;78;21202;-56
2022/01/22 04:30:29;;;;;;;6.03;1.90;;;;;;;-0.36;64.31;99473.75;1795559;77;22893;-59
2022/01/22 04:32:56;;;;;;;4.80;1.60;;;;;;;-0.48;64.45;99471.31;1770542;79;21073;-58
2022/01/22 04:35:23;;;;;;;4.92;1.85;;;;;;;-0.49;64.53;99476.55;1765382;79;21123;-59
2022/01/22 04:37:49;;;;;;;4.37;1.40;;;;;;;-0.52;64.56;99471.53;1765715;79;21520;-58
2022/01/22 04:40:16;;;;;;;5.22;2.10;;;;;;;-0.52;64.33;99480.58;1764302;79;20978;-60
2022/01/22 04:42:43;;;;;;;5.40;2.17;;;;;;;-0.55;64.40;99471.23;1764958;79;21742;-60
2022/01/22 04:45:20;;;;;;;6.30;1.52;;;;;;;-0.56;64.41;99474.72;1773736;79;21069;-60
2022/01/22 04:55:40;;;;;;;7.25;1.87;;;;;;;-0.65;64.30;99474.72;1765417;79;21058;-59
2022/01/22 04:58:09;;;;;;;5.12;1.85;;;;;;;-0.66;64.40;99483.37;1767654;79;21058;-63
2022/01/22 05:00:39;;;;;;;4.05;1.25;;;;;;;-0.65;64.35;99486.34;1764504;79;21141;-61
2022/01/22 05:03:09;;;;;;;4.75;1.60;;;;;;;-0.58;64.10;99492.05;1765109;79;21090;-63
2022/01/22 05:05:47;;;;;;;6.17;1.92;;;;;;;-0.53;64.10;99490.55;1774943;79;21062;-57
2022/01/22 05:08:25;;;;;;;3.72;1.32;;;;;;;-0.50;63.99;99486.06;1776566;79;21583;-60
2022/01/22 05:11:09;;;;;;;4.87;1.67;;;;;;;-0.47;63.78;99485.92;1768358;79;21054;-60
2022/01/22 05:13:37;;;;;;;5.65;2.20;;;;;;;-0.43;63.69;99492.59;1766636;79;21038;-60
2022/01/22 05:16:06;;;;;;;4.70;1.40;;;;;;;-0.43;63.45;99502.11;1771456;79;21065;-60
2022/01/22 05:18:40;;;;;;;4.33;1.55;;;;;;;-0.43;63.50;99500.81;1774553;79;21082;-60
2022/01/22 05:21:08;;;;;;;8.40;2.08;;;;;;;-0.45;63.52;99502.64;1770890;79;21089;-58
2022/01/22 05:23:31;;;;;;;6.30;1.75;;;;;;;-0.44;63.31;99510.77;1773094;80;21516;-59
2022/01/22 05:26:01;;;;;;;5.55;1.82;;;;;;;-0.43;63.26;99505.98;1770917;79;21150;-60
2022/01/22 05:37:04;;;;;;;7.30;1.95;;;;;;;-0.46;63.07;99521.17;1726929;81;21127;-61
2022/01/22 05:39:30;;;;;;;4.58;1.67;;;;;;;-0.45;63.10;99525.91;1742827;81;21227;-61
2022/01/22 05:41:58;;;;;;;7.60;1.20;;;;;;;-0.49;63.04;99523.07;1732305;82;21075;-59
2022/01/22 05:44:25;;;;;;;5.30;1.40;;;;;;;-0.48;63.02;99520.87;1737221;80;21566;-61
2022/01/22 05:46:54;;;;;;;3.65;1.47;;;;;;;-0.49;62.96;99524.36;1737599;81;22482;-60
2022/01/22 05:49:22;;;;;;;3.90;1.05;;;;;;;-0.49;62.87;99532.94;1739430;80;21573;-59
2022/01/22 05:51:51;;;;;;;3.85;1.20;;;;;;;-0.49;62.93;99539.87;1701505;82;21152;-59
2022/01/22 05:54:45;;;;;;;4.58;1.30;;;;;;;-0.49;62.98;99545.04;1704119;82;21675;-59
2022/01/22 05:59:36;;;;;;;9.05;0.98;;;;;;;-0.52;62.71;99553.79;1700476;82;21152;-58
2022/01/22 06:02:08;;;;;;;4.00;1.50;;;;;;;-0.51;62.59;99558.50;1683414;84;21141;-58
2022/01/22 06:04:35;;;;;;;4.60;1.45;;;;;;;-0.53;62.66;99545.64;1650969;84;21153;-58
2022/01/22 06:07:05;;;;;;;5.95;1.07;;;;;;;-0.50;62.56;99549.84;1703858;82;22255;-59
2022/01/22 06:09:33;;;;;;;4.40;1.35;;;;;;;-0.49;62.44;99556.67;1741822;81;21109;-61
2022/01/22 06:14:38;;;;;;;3.90;1.62;;;;;;;-0.47;62.22;99555.70;1735678;80;21169;-59
2022/01/22 06:17:05;;;;;;;6.35;1.67;;;;;;;-0.44;62.33;99552.97;1739342;80;21081;-61
2022/01/22 06:19:33;;;;;;;6.50;1.82;;;;;;;-0.41;61.97;99558.44;1741196;81;21040;-60
2022/01/22 06:22:01;;;;;;;6.35;1.25;;;;;;;-0.40;61.89;99556.25;1737406;80;21575;-61
2022/01/22 06:24:28;;;;;;;5.25;1.30;;;;;;;-0.41;61.54;99555.85;1737636;80;21616;-60
2022/01/22 06:26:55;;;;;;;4.22;1.47;;;;;;;-0.40;61.69;99561.41;1734908;82;21106;-62
2022/01/22 06:29:22;;;;;;;3.90;1.47;;;;;;;-0.35;61.43;99552.13;1740223;79;21170;-61
2022/01/22 06:31:48;;;;;;;10.18;2.17;;;;;;;-0.37;61.21;99563.83;1753732;79;21081;-60
2022/01/22 06:34:15;;;;;;;5.42;1.52;;;;;;;-0.37;61.21;99563.83;1748793;79;21338;-59
2022/01/22 06:36:42;;;;;;;3.62;1.22;;;;;;;-0.35;61.40;99563.32;1753271;79;21404;-58
2022/01/22 06:39:19;;;;;;;4.15;1.60;;;;;;;-0.32;61.26;99570.08;1747414;79;21115;-58
2022/01/22 06:41:48;;;;;;;10.35;1.62;;;;;;;-0.30;61.14;99579.45;1743984;80;21134;-64
2022/01/22 06:44:25;;;;;;;5.22;1.30;;;;;;;-0.27;61.01;99584.47;1731504;79;21561;-60
2022/01/22 06:46:55;;;;;;;4.47;1.20;;;;;;;-0.22;60.90;99579.92;1750995;79;20984;-60
2022/01/22 06:49:39;;;;;;;5.42;1.17;;;;;;;-0.22;60.60;99581.64;1750315;79;20943;-62
2022/01/22 06:52:08;;;;;;;4.03;1.45;;;;;;;-0.16;60.65;99581.82;1751149;79;21024;-56
2022/01/22 06:54:34;;;;;;;4.95;1.32;;;;;;;-0.12;60.58;99586.75;1751197;79;21196;-51
2022/01/22 06:57:01;;;;;;;3.17;1.17;;;;;;;-0.06;60.49;99585.63;1756284;79;21104;-50
2022/01/22 06:59:29;;;;;;;3.10;1.37;;;;;;;-0.02;60.40;99588.44;1760818;79;21089;-61
2022/01/22 07:01:56;;;;;;;3.00;1.20;;;;;;;0.00;60.23;99590.52;1739937;80;21122;-59
2022/01/22 07:04:25;;;;;;;5.33;1.52;;;;;;;0.01;60.17;99593.46;1747668;79;21631;-60
2022/01/22 07:06:56;;;;;;;3.55;1.35;;;;;;;0.07;60.19;99591.02;1657439;83;21811;-56
2022/01/22 07:09:24;;;;;;;6.22;1.90;;;;;;;0.11;60.13;99584.80;1756771;79;21170;-58
2022/01/22 07:11:51;;;;;;;6.60;1.87;;;;;;;0.14;59.78;99578.19;1753975;79;21265;-64
2022/01/22 07:14:17;;;;;;;6.45;2.70;;;;;;;0.14;59.78;99579.48;1763441;79;21106;-57
2022/01/22 07:16:45;;;;;;;7.28;2.50;;;;;;;0.14;59.69;99587.23;1756953;79;21109;-57
2022/01/22 07:19:37;;;;;;;7.28;2.50;;;;;;;0.16;59.38;99585.41;1752169;79;21138;-62
2022/01/22 07:22:06;;;;;;;4.33;1.45;;;;;;;0.18;59.31;99580.98;1722431;82;21142;-61
2022/01/22 07:24:33;;;;;;;6.00;1.45;;;;;;;0.15;59.20;99587.59;1755369;79;21134;-59
2022/01/22 07:26:58;;;;;;;4.37;1.20;;;;;;;0.14;59.34;99594.53;1755724;79;21103;-59
2022/01/22 07:29:26;;;;;;;5.15;1.50;;;;;;;0.15;59.34;99595.36;1752315;79;21285;-60
2022/01/22 07:31:53;;;;;;;5.15;1.70;;;;;;;0.14;59.05;99598.88;1767917;79;22850;-59
2022/01/22 07:34:20;;;;;;;7.33;1.77;;;;;;;0.15;59.01;99598.80;1758050;79;21117;-60
2022/01/22 07:36:46;;;;;;;4.33;1.47;;;;;;;0.13;58.92;99603.20;1763837;79;21078;-59
2022/01/22 07:39:13;;;;;;;4.78;1.57;;;;;;;0.10;58.97;99590.88;1729012;80;21101;-59
2022/01/22 07:41:41;;;;;;;5.53;1.80;;;;;;;0.10;59.10;99604.66;1761663;79;21550;-60
2022/01/22 07:44:26;;;;;;;6.08;1.67;;;;;;;0.12;59.00;99610.59;1766793;79;21066;-58
2022/01/22 07:46:54;;;;;;;4.25;1.32;;;;;;;0.12;58.97;99611.06;1738374;80;21101;-58
2022/01/22 07:49:21;;;;;;;4.45;1.50;;;;;;;0.13;58.97;99608.38;1769199;80;21037;-64
2022/01/22 07:51:50;;;;;;;5.35;1.95;;;;;;;0.11;58.83;99616.67;1767644;79;21062;-63
2022/01/22 07:54:17;;;;;;;4.45;1.90;;;;;;;0.08;58.97;99619.87;1762807;79;21061;-60
2022/01/22 07:56:44;;;;;;;5.62;1.72;;;;;;;0.09;58.96;99623.67;1768093;79;21060;-60
2022/01/22 07:59:12;;;;;;;6.60;2.20;;;;;;;0.10;59.14;99635.71;1765044;79;21750;-60
2022/01/22 08:01:40;;;;;;;7.10;1.32;;;;;;;0.14;59.39;99635.09;1734274;81;21047;-59
2022/01/22 08:04:25;;;;;;;5.33;1.70;;;;;;;0.07;61.69;99637.15;1763096;79;21059;-60
2022/01/22 08:07:10;;;;;;;7.03;2.05;;;;;;;-0.02;64.13;99650.51;1761958;79;21047;-62
2022/01/22 08:09:55;;;;;;;5.70;2.35;;;;;;;-0.10;64.15;99644.86;1761503;79;21204;-66
2022/01/22 08:12:32;;;;;;;4.87;1.72;;;;;;;-0.12;64.01;99651.40;1759878;80;20963;-60
2022/01/22 08:15:08;;;;;;;4.45;1.62;;;;;;;-0.11;64.90;99640.63;1733739;79;21094;-57
2022/01/22 08:17:35;;;;;;;5.03;1.80;;;;;;;-0.09;62.84;99644.79;1760470;79;21059;-64
2022/01/22 08:20:03;;;;;;;5.60;1.27;;;;;;;-0.03;61.47;99654.03;1759757;79;21086;-60
2022/01/22 08:22:48;;;;;;;3.92;1.02;;;;;;;0.01;60.41;99654.71;1757797;79;21120;-59
2022/01/22 08:25:33;;;;;;;4.05;1.35;;;;;;;0.06;60.24;99645.80;1761069;79;21103;-61
2022/01/22 08:30:35;;;;;;;4.03;1.45;;;;;;;0.16;59.35;99649.62;1749977;79;21059;-60
2022/01/22 08:35:55;;;;;;;4.72;1.55;;;;;;;0.26;58.66;99656.95;1744416;81;21156;-59
2022/01/22 08:38:28;;;;;;;4.60;1.50;;;;;;;0.30;58.51;99660.61;1743842;81;21141;-60
2022/01/22 08:40:55;;;;;;;4.87;1.50;;;;;;;0.34;58.32;99653.06;1748981;81;21175;-62
2022/01/22 08:43:22;;;;;;;4.42;1.30;;;;;;;0.39;58.71;99661.91;1750132;81;21149;-60
2022/01/22 08:45:50;;;;;;;5.67;1.62;;;;;;;0.44;58.36;99660.36;1749800;81;21091;-60
2022/01/22 08:48:18;;;;;;;5.58;1.37;;;;;;;0.48;58.09;99666.61;1748126;81;21073;-60
2022/01/22 08:50:47;;;;;;;5.37;1.60;;;;;;;0.51;57.65;99669.52;1753702;81;21114;-61
2022/01/22 08:53:13;;;;;;;7.65;2.00;;;;;;;0.47;57.77;99666.24;1725027;81;21166;-62
2022/01/22 08:55:40;;;;;;;5.60;1.90;;;;;;;0.49;57.86;99668.30;1746064;81;21096;-59
2022/01/22 08:58:08;;;;;;;5.53;1.92;;;;;;;0.53;57.88;99669.80;1720154;80;21473;-61
2022/01/22 09:00:37;;;;;;;5.33;2.10;;;;;;;0.58;57.33;99673.92;1709850;81;21783;-60
2022/01/22 09:03:06;;;;;;;5.12;2.40;;;;;;;0.58;57.33;99673.92;1749896;81;21614;-61
2022/01/22 09:05:36;;;;;;;5.72;2.47;;;;;;;0.60;57.45;99665.63;1720324;81;22255;-59
2022/01/22 09:08:19;;;;;;;6.67;1.82;;;;;;;0.60;57.07;99674.68;1673238;83;21499;-61
2022/01/22 09:11:00;;;;;;;5.30;2.33;;;;;;;0.59;57.11;99669.97;1733274;81;21054;-65
2022/01/22 09:13:33;;;;;;;4.37;1.75;;;;;;;0.66;57.29;99661.44;1750848;81;21153;-59
2022/01/22 09:16:04;;;;;;;6.08;2.47;;;;;;;0.70;57.14;99665.06;1750487;80;21553;-58
2022/01/22 09:18:32;;;;;;;5.08;2.05;;;;;;;0.77;56.88;99667.36;1725853;81;21089;-58
2022/01/22 09:21:04;;;;;;;5.95;1.47;;;;;;;0.84;56.99;99670.86;1748400;80;21148;-53
2022/01/22 09:23:32;;;;;;;5.12;1.72;;;;;;;0.91;56.78;99672.67;1753284;81;21522;-52
2022/01/22 09:26:02;;;;;;;9.38;2.30;;;;;;;0.95;56.11;99679.83;1748920;79;21070;-52
2022/01/22 09:28:31;;;;;;;8.13;2.15;;;;;;;0.95;56.15;99673.36;1687637;83;21392;-52
2022/01/22 09:30:59;;;;;;;6.65;2.35;;;;;;;1.00;56.01;99677.38;1755706;79;21508;-53
2022/01/22 09:33:28;;;;;;;5.85;1.72;;;;;;;1.03;55.98;99675.09;1737959;79;21702;-52
2022/01/22 09:35:56;;;;;;;4.95;1.77;;;;;;;1.09;55.98;99689.00;1758418;79;21063;-52
2022/01/22 09:38:34;;;;;;;6.15;2.40;;;;;;;1.14;56.00;99681.83;1707889;82;21617;-52
2022/01/22 09:41:22;;;;;;;4.65;1.80;;;;;;;1.19;55.97;99679.83;1734996;79;21109;-50
2022/01/22 09:44:01;;;;;;;6.72;1.80;;;;;;;1.22;55.12;99687.45;1766302;79;21046;-50
2022/01/22 09:46:34;;;;;;;4.80;1.37;;;;;;;1.20;55.05;99697.06;1700414;82;21110;-51
2022/01/22 09:49:12;;;;;;;4.90;1.80;;;;;;;1.17;55.24;99693.33;1759660;79;21589;-50
2022/01/22 09:51:44;;;;;;;7.78;2.33;;;;;;;1.18;55.09;99692.42;1734646;79;21152;-59
2022/01/22 09:54:13;;;;;;;7.10;2.98;;;;;;;1.18;54.79;99693.72;1765600;79;21047;-58
2022/01/22 09:56:55;;;;;;;7.00;1.90;;;;;;;1.19;54.55;99693.25;1757547;79;21083;-59
2022/01/22 09:59:23;;;;;;;8.63;2.10;;;;;;;1.23;54.97;99692.20;1728527;79;21143;-58
2022/01/22 10:02:18;;;;;;;4.65;2.05;;;;;;;1.26;54.63;99692.01;1764527;80;21058;-59
2022/01/22 10:04:48;;;;;;;6.42;2.77;;;;;;;1.29;54.79;99691.41;1762469;79;23256;-59
2022/01/22 10:07:21;;;;;;;6.60;1.60;;;;;;;1.32;54.95;99694.76;1756267;79;21082;-61
2022/01/22 10:10:04;;;;;;;5.35;2.30;;;;;;;1.37;54.44;99706.55;1741626;79;21167;-59
2022/01/22 10:12:53;;;;;;;6.08;1.85;;;;;;;1.33;54.44;99711.52;1688733;80;21092;-59
2022/01/22 10:15:35;;;;;;;4.30;2.00;;;;;;;1.24;54.40;99697.73;1734458;80;21069;-61
2022/01/22 10:18:03;;;;;;;5.70;2.40;;;;;;;1.21;54.52;99712.14;1750920;80;21082;-59
2022/01/22 10:20:40;;;;;;;5.33;1.92;;;;;;;1.20;54.50;99706.14;1757849;80;21090;-60
2022/01/22 10:23:19;;;;;;;4.83;1.75;;;;;;;1.22;54.68;99699.58;1758507;79;21118;-59
2022/01/22 10:25:57;;;;;;;6.42;2.08;;;;;;;1.27;54.42;99712.66;1755494;79;21030;-59
2022/01/22 10:28:21;;;;;;;5.00;2.20;;;;;;;1.26;54.11;99718.78;1701856;80;21078;-60
2022/01/22 10:30:54;;;;;;;7.78;2.25;;;;;;;1.26;54.32;99716.20;1756171;79;22318;-58
2022/01/22 10:33:31;;;;;;;4.67;1.62;;;;;;;1.27;54.31;99713.96;1747385;81;21114;-59
2022/01/22 10:36:19;;;;;;;8.05;2.60;;;;;;;1.33;54.27;99709.38;1749158;81;21008;-60
2022/01/22 10:39:07;;;;;;;6.35;2.30;;;;;;;1.34;54.33;99711.88;1551968;89;21145;-60
2022/01/22 10:41:40;;;;;;;5.45;2.37;;;;;;;1.34;54.19;99708.47;1702172;81;21007;-61
2022/01/22 10:44:12;;;;;;;6.70;3.00;;;;;;;1.36;54.49;99704.03;1758707;81;21078;-61
2022/01/22 10:46:50;;;;;;;5.33;2.17;;;;;;;1.45;54.22;99699.20;1688281;83;21019;-61
2022/01/22 10:49:18;;;;;;;;;;;;;;;1.51;54.17;99699.32;1742803;81;21075;-60
2022/01/22 10:51:56;;;;;;;6.20;1.98;;;;;;;1.54;54.31;99707.41;1725956;81;20283;-60
2022/01/22 10:54:24;;;;;;;6.53;2.87;;;;;;;1.46;54.30;99706.08;1724136;81;21067;-60
2022/01/22 10:56:52;;;;;;;4.85;1.92;;;;;;;1.47;54.29;99710.80;1746561;81;21154;-59
2022/01/22 10:59:20;;;;;;;5.85;2.50;;;;;;;1.41;54.62;99708.08;1746886;81;21062;-60
2022/01/22 11:01:59;;;;;;;8.35;2.40;;;;;;;1.37;54.84;99708.31;1751664;81;21483;-59
2022/01/22 11:04:32;;;;;;;7.25;2.95;;;;;;;1.36;54.71;99713.10;1753675;79;21527;-59
2022/01/22 11:07:06;;;;;;;6.03;2.35;;;;;;;1.37;54.73;99715.62;1732389;81;21062;-63
2022/01/22 11:09:34;;;;;;;5.75;2.00;;;;;;;1.38;54.58;99724.22;1749671;81;21157;-60
2022/01/22 11:12:05;;;;;;;9.58;1.90;;;;;;;1.39;54.00;99718.96;1744736;80;21066;-59
2022/01/22 11:14:34;;;;;;;5.22;1.67;;;;;;;1.51;53.85;99708.40;1744395;80;21071;-59
2022/01/22 11:17:01;;;;;;;10.28;2.30;;;;;;;1.62;53.30;99701.36;1749790;79;21101;-58
2022/01/22 11:19:33;;;;;;;4.75;1.82;;;;;;;1.75;52.52;99701.07;1751751;80;21004;-59
2022/01/22 11:22:11;;;;;;;5.80;2.15;;;;;;;1.82;52.03;99703.70;1753642;81;21198;-60
2022/01/22 11:24:43;;;;;;;6.25;2.33;;;;;;;1.90;52.37;99702.00;1751024;80;21042;-61
2022/01/22 11:27:13;;;;;;;5.97;2.30;;;;;;;1.97;51.84;99715.47;1725041;81;21590;-63
2022/01/22 11:29:57;;;;;;;13.50;2.80;;;;;;;2.01;52.00;99701.39;1722871;81;21506;-62
2022/01/22 11:32:30;;;;;;;5.22;2.20;;;;;;;2.11;51.67;99699.95;1748143;79;21031;-67
2022/01/22 11:35:01;;;;;;;6.97;2.27;;;;;;;2.22;51.42;99699.38;1731536;80;21791;-61
2022/01/22 11:37:38;;;;;;;5.20;2.08;;;;;;;2.25;51.34;99703.06;1756996;80;21107;-61
2022/01/22 11:40:18;;;;;;;5.45;1.80;;;;;;;2.31;51.42;99703.20;1752710;79;21064;-62
2022/01/22 11:43:07;;;;;;;7.00;2.17;;;;;;;2.37;51.23;99706.28;1733238;80;21102;-58
2022/01/22 11:45:34;;;;;;;;;;;;;;;2.41;51.03;99705.64;1736507;80;21101;-62
2022/01/22 11:48:18;;;;;;;9.53;4.47;;;;;;;2.35;52.53;99699.02;1735697;80;21015;-60
2022/01/22 11:50:50;;;;;;;5.70;2.25;;;;;;;2.26;53.26;99713.01;1753932;79;21039;-62
2022/01/22 11:53:37;;;;;;;5.50;2.62;;;;;;;2.22;54.34;99719.66;1756644;79;21066;-59
2022/01/22 11:56:24;;;;;;;8.48;3.20;;;;;;;2.09;56.02;99726.45;1757999;79;21070;-60
2022/01/22 11:59:06;;;;;;;6.55;3.15;;;;;;;1.94;56.03;99715.63;1736276;80;21774;-57
2022/01/22 12:01:53;;;;;;;7.60;3.72;;;;;;;1.80;55.58;99728.89;1695396;82;21966;-60
2022/01/22 12:04:45;;;;;;;5.92;2.40;;;;;;;1.75;55.13;99732.64;1693350;83;21213;-61
2022/01/22 12:07:15;;;;;;;6.35;2.42;;;;;;;1.72;55.33;99752.28;1689105;83;21143;-63
2022/01/22 12:15:45;;;;;;;7.33;2.30;;;;;;;1.32;57.86;99749.19;1755291;79;21098;-60
2022/01/22 12:18:16;;;;;;;7.15;3.58;;;;;;;1.24;58.50;99759.47;1751496;79;21125;-59
2022/01/22 12:23:33;;;;;;;7.37;3.50;;;;;;;1.19;59.52;99769.23;1718489;82;22346;-62
2022/01/22 12:26:02;;;;;;;7.10;2.85;;;;;;;1.24;60.42;99768.55;1716873;81;21072;-64
2022/01/22 12:28:42;;;;;;;8.03;3.72;;;;;;;1.28;60.14;99766.66;1750589;79;23535;-61
2022/01/22 12:31:18;;;;;;;6.35;2.60;;;;;;;1.33;60.11;99773.73;1751475;79;21162;-62
2022/01/22 12:33:56;;;;;;;6.97;3.35;;;;;;;1.35;59.73;99762.00;1761905;79;21545;-61
2022/01/22 12:36:28;;;;;;;7.00;2.33;;;;;;;1.38;59.29;99769.16;1754612;80;21105;-63
2022/01/22 12:39:11;;;;;;;5.33;2.55;;;;;;;1.43;59.17;99781.85;1757808;79;21113;-66
2022/01/22 12:44:13;;;;;;;8.83;2.87;;;;;;;1.49;58.47;99778.95;1757216;79;21062;-61
2022/01/22 12:46:40;;;;;;;7.12;2.62;;;;;;;1.49;58.11;99777.66;1737828;80;21046;-63
2022/01/22 12:49:08;;;;;;;6.35;2.27;;;;;;;1.46;58.05;99785.15;1719587;82;21079;-60
2022/01/22 12:51:35;;;;;;;5.53;2.00;;;;;;;1.45;57.77;99781.34;1750553;79;21604;-57
2022/01/22 12:54:03;;;;;;;5.92;2.12;;;;;;;1.43;57.24;99802.59;1757551;79;21300;-63
2022/01/22 12:59:04;;;;;;;9.35;3.02;;;;;;;1.36;57.43;99796.05;1761927;79;21047;-59
2022/01/22 13:01:32;;;;;;;5.17;2.45;;;;;;;1.35;57.60;99794.40;1752337;79;21047;-60
2022/01/22 13:04:01;;;;;;;5.75;2.30;;;;;;;1.63;57.35;99799.83;1754865;79;21109;-63
2022/01/22 13:06:40;;;;;;;6.58;2.42;;;;;;;1.79;56.48;99799.84;1756612;79;21141;-62
2022/01/22 13:09:17;;;;;;;6.35;2.37;;;;;;;2.23;55.55;99806.16;1700132;80;21052;-62
2022/01/22 13:11:50;;;;;;;5.80;2.47;;;;;;;2.49;55.08;99806.03;1752346;79;21051;-59
2022/01/22 13:14:21;;;;;;;8.38;3.10;;;;;;;2.67;54.28;99808.03;1751469;80;21731;-62
2022/01/22 13:16:50;;;;;;;5.25;1.92;;;;;;;2.95;53.58;99812.50;1748928;79;21102;-60
2022/01/22 13:19:17;;;;;;;8.33;3.08;;;;;;;3.09;53.31;99822.56;1755777;79;21138;-61
2022/01/22 13:21:56;;;;;;;13.20;8.18;;;;;;;3.44;52.47;99825.70;1751833;79;21638;-61
2022/01/22 13:24:25;;;;;;;8.18;2.98;;;;;;;3.78;51.92;99831.47;1756237;80;21703;-64
2022/01/22 13:27:01;;;;;;;8.80;4.25;;;;;;;3.40;52.62;99841.59;1757045;79;21074;-64
2022/01/22 13:29:33;;;;;;;7.17;2.10;;;;;;;2.65;55.78;99851.92;1736778;80;21602;-65
2022/01/22 13:49:21;;;;;;;6.05;1.35;;;;;;;0.24;64.27;99881.31;1764048;79;20991;-63
2022/01/22 13:51:47;;;;;;;4.70;1.12;;;;;;;0.08;64.39;99889.73;1740532;80;21054;-61
2022/01/22 13:54:14;;;;;;;15.95;10.63;;;;;;;-0.03;64.53;99892.81;1759091;79;21125;-60
2022/01/22 13:56:52;;;;;;;10.28;6.10;;;;;;;-0.09;64.55;99893.07;1756456;79;21073;-62
2022/01/22 13:59:39;;;;;;;29.23;21.37;;;;;;;-0.11;64.75;99896.64;1759307;79;21097;-63